createdAt,value
2023-01-19T00:00:34.313Z,100.00
2023-01-19T00:03:36.946Z,100.00
2023-01-19T00:06:38.616Z,100.00
2023-01-19T00:09:40.213Z,100.00
2023-01-19T00:12:41.785Z,100.00
2023-01-19T00:15:43.481Z,100.00
2023-01-19T00:18:45.623Z,100.00
2023-01-19T00:21:47.198Z,100.00
2023-01-19T00:24:48.689Z,100.00
2023-01-19T00:27:50.273Z,100.00
2023-01-19T00:30:52.275Z,100.00
2023-01-19T00:33:53.771Z,100.00
2023-01-19T00:36:55.304Z,100.00
2023-01-19T00:39:56.854Z,100.00
2023-01-19T00:42:58.712Z,100.00
2023-01-19T00:46:00.429Z,100.00
2023-01-19T00:49:01.947Z,100.00
2023-01-19T00:52:03.703Z,100.00
2023-01-19T00:55:06.558Z,100.00
2023-01-19T00:58:08.069Z,100.00
2023-01-19T01:01:09.618Z,100.00
2023-01-19T01:04:13.608Z,100.00
2023-01-19T01:07:15.105Z,100.00
2023-01-19T01:10:25.791Z,100.00
2023-01-19T01:13:28.084Z,100.00
2023-01-19T01:16:29.972Z,100.00
2023-01-19T01:19:31.842Z,100.00
2023-01-19T01:22:33.401Z,100.00
2023-01-19T01:25:38.586Z,100.00
2023-01-19T01:28:40.118Z,100.00
2023-01-19T01:31:41.860Z,100.00
2023-01-19T01:34:43.819Z,100.00
2023-01-19T01:37:45.306Z,100.00
2023-01-19T01:40:46.876Z,100.00
2023-01-19T01:43:58.497Z,100.00
2023-01-19T01:47:00.841Z,100.00
2023-01-19T01:50:10.699Z,100.00
2023-01-19T01:53:14.775Z,100.00
2023-01-19T01:56:22.182Z,100.00
2023-01-19T01:59:28.034Z,100.00
2023-01-19T02:02:51.177Z,100.00
2023-01-19T02:05:57.657Z,100.00
2023-01-19T02:09:23.189Z,100.00
2023-01-19T02:12:43.473Z,100.00
2023-01-19T02:15:45.567Z,100.00
2023-01-19T02:18:47.114Z,100.00
2023-01-19T02:22:04.079Z,100.00
2023-01-19T02:25:07.168Z,100.00
2023-01-19T02:28:09.068Z,100.00
2023-01-19T02:31:11.527Z,100.00
2023-01-19T02:34:16.845Z,100.00
2023-01-19T02:37:18.774Z,100.00
2023-01-19T02:40:24.337Z,100.00
2023-01-19T02:43:28.124Z,100.00
2023-01-19T02:46:29.685Z,100.00
2023-01-19T02:49:31.340Z,100.00
2023-01-19T02:52:32.863Z,100.00
2023-01-19T02:55:34.552Z,100.00
2023-01-19T02:58:59.043Z,100.00
2023-01-19T03:02:08.856Z,100.00
2023-01-19T03:05:47.979Z,100.00
2023-01-19T03:09:05.168Z,100.00
2023-01-19T03:12:37.709Z,100.00
2023-01-19T03:15:48.900Z,100.00
2023-01-19T03:18:56.756Z,100.00
2023-01-19T03:22:01.395Z,100.00
2023-01-19T03:25:03.468Z,100.00
2023-01-19T03:28:05.475Z,100.00
2023-01-19T03:31:13.976Z,100.00
2023-01-19T03:34:18.400Z,100.00
2023-01-19T03:37:21.786Z,100.00
2023-01-19T03:40:27.232Z,100.00
2023-01-19T03:43:31.559Z,100.00
2023-01-19T03:46:33.853Z,100.00
2023-01-19T03:49:36.781Z,100.00
2023-01-19T03:52:38.320Z,100.00
2023-01-19T03:55:43.252Z,100.00
2023-01-19T03:58:45.355Z,100.00
2023-01-19T04:01:47.294Z,100.00
2023-01-19T04:04:49.444Z,100.00
2023-01-19T04:07:52.233Z,100.00
2023-01-19T04:10:53.834Z,100.00
2023-01-19T04:13:55.322Z,100.00
2023-01-19T04:16:56.918Z,100.00
2023-01-19T04:19:58.497Z,100.00
2023-01-19T04:23:01.996Z,100.00
2023-01-19T04:26:06.306Z,100.00
2023-01-19T04:29:07.814Z,100.00
2023-01-19T04:32:09.540Z,100.00
2023-01-19T04:35:11.073Z,100.00
2023-01-19T04:38:12.855Z,100.00
2023-01-19T04:41:14.780Z,100.00
2023-01-19T04:44:16.447Z,100.00
2023-01-19T04:47:17.987Z,100.00
2023-01-19T04:50:19.525Z,100.00
2023-01-19T04:53:21.025Z,100.00
2023-01-19T04:56:22.598Z,100.00
2023-01-19T04:59:24.311Z,100.00
2023-01-19T05:02:26.754Z,100.00
2023-01-19T05:05:28.373Z,100.00
2023-01-19T05:08:30.176Z,100.00
2023-01-19T05:11:31.701Z,100.00
2023-01-19T05:14:33.211Z,100.00
2023-01-19T05:17:34.744Z,100.00
2023-01-19T05:20:36.326Z,100.00
2023-01-19T05:23:37.844Z,100.00
2023-01-19T05:26:39.386Z,100.00
2023-01-19T05:29:40.884Z,100.00
2023-01-19T05:32:42.480Z,100.00
2023-01-19T05:35:44.001Z,100.00
2023-01-19T05:38:45.474Z,100.00
2023-01-19T05:41:47.706Z,100.00
2023-01-19T05:44:49.410Z,100.00
2023-01-19T05:47:50.986Z,100.00
2023-01-19T05:50:57.805Z,100.00
2023-01-19T05:54:01.043Z,100.00
2023-01-19T05:57:03.697Z,100.00
2023-01-19T06:00:05.705Z,100.00
2023-01-19T06:03:10.795Z,100.00
2023-01-19T06:06:14.896Z,100.00
2023-01-19T06:09:17.358Z,100.00
2023-01-19T06:12:18.911Z,100.00
2023-01-19T06:15:20.393Z,100.00
2023-01-19T06:18:21.894Z,100.00
2023-01-19T06:21:24.019Z,100.00
2023-01-19T06:24:26.001Z,100.00
2023-01-19T06:27:27.720Z,100.00
2023-01-19T06:30:29.334Z,100.00
2023-01-19T06:33:31.500Z,100.00
2023-01-19T06:36:33.066Z,100.00
2023-01-19T06:39:34.592Z,100.00
2023-01-19T06:42:36.131Z,100.00
2023-01-19T06:45:39.236Z,100.00
2023-01-19T06:48:41.402Z,100.00
2023-01-19T06:51:43.241Z,100.00
2023-01-19T06:54:46.036Z,100.00
2023-01-19T06:57:47.549Z,100.00
2023-01-19T07:00:50.445Z,100.00
2023-01-19T07:03:52.184Z,100.00
2023-01-19T07:06:53.787Z,100.00
2023-01-19T07:09:55.534Z,100.00
2023-01-19T07:12:58.082Z,100.00
2023-01-19T07:16:08.351Z,100.00
2023-01-19T07:19:10.940Z,100.00
2023-01-19T07:22:12.652Z,100.00
2023-01-19T07:25:14.879Z,100.00
2023-01-19T07:29:04.859Z,100.00
2023-01-19T07:32:06.895Z,100.00
2023-01-19T07:35:09.910Z,100.00
2023-01-19T07:38:11.520Z,100.00
2023-01-19T07:41:13.187Z,100.00
2023-01-19T07:44:14.824Z,100.00
2023-01-19T07:47:16.371Z,100.00
2023-01-19T07:50:21.373Z,100.00
2023-01-19T07:53:22.912Z,100.00
2023-01-19T07:56:24.817Z,100.00
2023-01-19T07:59:27.773Z,100.00
2023-01-19T08:02:30.227Z,100.00
2023-01-19T08:05:33.181Z,100.00
2023-01-19T08:08:35.018Z,100.00
2023-01-19T08:11:36.735Z,100.00
2023-01-19T08:14:38.291Z,100.00
2023-01-19T08:17:39.819Z,100.00
2023-01-19T08:20:41.423Z,98.96
2023-01-19T08:23:56.172Z,98.31
2023-01-19T08:27:02.652Z,97.61
2023-01-19T08:30:04.683Z,98.25
2023-01-19T08:33:09.365Z,98.46
2023-01-19T08:36:10.922Z,97.53
2023-01-19T08:39:13.159Z,97.04
2023-01-19T08:42:14.637Z,96.52
2023-01-19T08:45:16.217Z,95.66
2023-01-19T08:48:22.097Z,95.02
2023-01-19T08:51:23.929Z,94.23
2023-01-19T08:54:25.545Z,93.07
2023-01-19T08:58:05.768Z,94.38
2023-01-19T09:01:08.735Z,94.47
2023-01-19T09:04:10.386Z,95.12
2023-01-19T09:07:11.956Z,95.12
2023-01-19T09:10:14.619Z,93.83
2023-01-19T09:13:17.034Z,92.11
2023-01-19T09:16:18.718Z,91.01
2023-01-19T09:19:20.363Z,91.04
2023-01-19T09:22:21.898Z,90.80
2023-01-19T09:25:23.578Z,90.08
2023-01-19T09:28:25.608Z,90.22
2023-01-19T09:31:27.347Z,89.48
2023-01-19T09:34:29.009Z,88.20
2023-01-19T09:37:30.558Z,87.57
2023-01-19T09:40:32.299Z,87.26
2023-01-19T09:43:47.470Z,86.60
2023-01-19T09:46:49.104Z,84.45
2023-01-19T09:49:58.821Z,85.03
2023-01-19T09:53:11.284Z,84.82
2023-01-19T09:56:15.139Z,85.19
2023-01-19T09:59:30.893Z,84.84
2023-01-19T10:02:55.804Z,85.14
2023-01-19T10:06:06.940Z,86.21
2023-01-19T10:09:34.248Z,85.03
2023-01-19T10:13:17.065Z,84.56
2023-01-19T10:16:37.079Z,84.17
2023-01-19T10:19:46.741Z,82.73
2023-01-19T10:22:49.952Z,82.36
2023-01-19T10:25:52.130Z,83.05
2023-01-19T10:28:58.538Z,82.69
2023-01-19T10:32:36.040Z,82.52
2023-01-19T10:35:37.578Z,83.39
2023-01-19T10:38:39.160Z,83.44
2023-01-19T10:41:48.838Z,83.00
2023-01-19T10:44:50.524Z,83.76
2023-01-19T10:47:53.855Z,83.30
2023-01-19T10:51:03.675Z,83.45
2023-01-19T10:54:05.573Z,84.16
2023-01-19T10:57:13.657Z,83.92
2023-01-19T11:00:39.964Z,83.66
2023-01-19T11:03:41.695Z,82.70
2023-01-19T11:06:43.301Z,81.96
2023-01-19T11:09:45.256Z,82.19
2023-01-19T11:13:12.582Z,82.93
2023-01-19T11:16:29.130Z,82.93
2023-01-19T11:19:32.980Z,82.52
2023-01-19T11:22:34.864Z,82.00
2023-01-19T11:25:37.033Z,80.50
2023-01-19T11:28:44.837Z,79.29
2023-01-19T11:31:47.056Z,79.16
2023-01-19T11:34:49.730Z,79.56
2023-01-19T11:38:05.740Z,78.82
2023-01-19T11:41:17.097Z,78.02
2023-01-19T11:44:22.592Z,77.05
2023-01-19T11:47:29.211Z,77.06
2023-01-19T11:50:42.225Z,76.39
2023-01-19T11:53:51.209Z,75.87
2023-01-19T11:56:55.712Z,74.93
2023-01-19T12:00:03.366Z,74.65
2023-01-19T12:03:22.721Z,73.51
2023-01-19T12:06:36.847Z,73.13
2023-01-19T12:09:46.184Z,73.29
2023-01-19T12:12:47.933Z,73.98
2023-01-19T12:15:55.450Z,74.22
2023-01-19T12:19:17.837Z,74.39
2023-01-19T12:22:20.950Z,73.61
2023-01-19T12:25:28.466Z,72.88
2023-01-19T12:28:39.243Z,72.22
2023-01-19T12:31:42.906Z,72.08
2023-01-19T12:34:50.105Z,71.56
2023-01-19T12:37:51.621Z,71.76
2023-01-19T12:41:24.599Z,71.58
2023-01-19T12:44:30.567Z,71.73
2023-01-19T12:47:32.741Z,70.71
2023-01-19T12:50:38.031Z,71.25
2023-01-19T12:53:39.605Z,71.42
2023-01-19T12:56:42.069Z,70.40
2023-01-19T12:59:44.382Z,70.72
2023-01-19T13:02:47.518Z,71.29
2023-01-19T13:05:54.825Z,71.29
2023-01-19T13:08:58.999Z,71.82
2023-01-19T13:12:15.528Z,72.12
2023-01-19T13:15:33.993Z,72.55
2023-01-19T13:18:41.763Z,72.37
2023-01-19T13:21:46.201Z,72.67
2023-01-19T13:25:06.409Z,72.39
2023-01-19T13:28:10.120Z,72.30
2023-01-19T13:31:13.550Z,71.78
2023-01-19T13:34:18.972Z,72.34
2023-01-19T13:37:23.487Z,72.73
2023-01-19T13:40:33.775Z,72.33
2023-01-19T13:43:38.185Z,72.28
2023-01-19T13:46:40.838Z,73.08
2023-01-19T13:49:46.289Z,72.97
2023-01-19T13:52:48.984Z,72.88
2023-01-19T13:56:23.166Z,73.38
2023-01-19T13:59:24.785Z,73.61
2023-01-19T14:02:26.615Z,73.85
2023-01-19T14:05:40.326Z,73.91
2023-01-19T14:08:41.875Z,73.53
2023-01-19T14:12:05.436Z,75.05
2023-01-19T14:15:13.953Z,74.88
2023-01-19T14:18:18.644Z,76.02
2023-01-19T14:21:20.232Z,76.15
2023-01-19T14:24:23.887Z,76.87
2023-01-19T14:27:25.551Z,77.63
2023-01-19T14:30:27.974Z,78.25
2023-01-19T14:33:34.172Z,77.77
2023-01-19T14:36:39.339Z,77.56
2023-01-19T14:39:46.243Z,78.11
2023-01-19T14:42:57.271Z,78.92
2023-01-19T14:45:59.178Z,80.36
2023-01-19T14:49:03.514Z,80.73
2023-01-19T14:52:36.185Z,80.68
2023-01-19T14:55:39.665Z,81.04
2023-01-19T14:58:41.265Z,81.27
2023-01-19T15:01:42.895Z,82.75
2023-01-19T15:04:45.304Z,84.16
2023-01-19T15:07:47.572Z,85.60
2023-01-19T15:10:49.185Z,86.00
2023-01-19T15:13:51.570Z,85.88
2023-01-19T15:16:53.156Z,86.10
2023-01-19T15:19:56.109Z,87.13
2023-01-19T15:22:57.705Z,88.26
2023-01-19T15:26:01.306Z,89.23
2023-01-19T15:29:03.338Z,89.83
2023-01-19T15:32:05.147Z,91.38
2023-01-19T15:35:17.075Z,92.17
2023-01-19T15:38:18.750Z,92.86
2023-01-19T15:41:29.705Z,94.24
2023-01-19T15:44:31.475Z,95.56
2023-01-19T15:47:32.976Z,95.57
2023-01-19T15:50:43.488Z,96.00
2023-01-19T15:53:45.555Z,95.40
2023-01-19T15:56:47.302Z,95.65
2023-01-19T15:59:48.944Z,96.21
2023-01-19T16:02:52.028Z,96.36
2023-01-19T16:05:53.768Z,96.23
2023-01-19T16:08:59.771Z,96.54
2023-01-19T16:12:01.304Z,97.55
2023-01-19T16:15:03.022Z,97.94
2023-01-19T16:18:05.897Z,98.21
2023-01-19T16:21:07.482Z,98.42
2023-01-19T16:24:08.955Z,98.02
2023-01-19T16:27:10.637Z,98.22
2023-01-19T16:30:12.955Z,99.30
2023-01-19T16:33:14.709Z,99.63
2023-01-19T16:36:30.823Z,100.00
2023-01-19T16:39:32.715Z,99.51
2023-01-19T16:42:34.314Z,99.35
2023-01-19T16:45:55.327Z,99.88
2023-01-19T16:49:02.349Z,100.00
2023-01-19T16:52:03.965Z,100.00
2023-01-19T16:55:09.307Z,100.00
2023-01-19T16:58:10.823Z,100.00
2023-01-19T17:01:20.040Z,100.00
2023-01-19T17:04:23.220Z,100.00
2023-01-19T17:07:24.879Z,100.00
2023-01-19T17:10:26.472Z,100.00
2023-01-19T17:13:29.317Z,100.00
2023-01-19T17:16:33.062Z,100.00
2023-01-19T17:19:34.879Z,100.00
2023-01-19T17:22:36.391Z,100.00
2023-01-19T17:25:37.946Z,100.00
2023-01-19T17:28:40.505Z,100.00
2023-01-19T17:31:42.884Z,100.00
2023-01-19T17:34:46.644Z,100.00
2023-01-19T17:37:48.349Z,100.00
2023-01-19T17:40:49.807Z,100.00
2023-01-19T17:43:52.213Z,100.00
2023-01-19T17:46:53.868Z,100.00
2023-01-19T17:49:55.291Z,100.00
2023-01-19T17:52:56.895Z,100.00
2023-01-19T17:56:12.573Z,100.00
2023-01-19T17:59:14.060Z,100.00
2023-01-19T18:02:15.967Z,100.00
2023-01-19T18:05:18.543Z,100.00
2023-01-19T18:08:20.145Z,100.00
2023-01-19T18:11:21.979Z,100.00
2023-01-19T18:14:23.525Z,100.00
2023-01-19T18:17:25.027Z,100.00
2023-01-19T18:20:26.572Z,100.00
2023-01-19T18:23:28.370Z,100.00
2023-01-19T18:26:31.199Z,100.00
2023-01-19T18:29:32.888Z,100.00
2023-01-19T18:32:34.688Z,100.00
2023-01-19T18:35:38.826Z,100.00
2023-01-19T18:38:40.631Z,100.00
2023-01-19T18:41:42.261Z,100.00
2023-01-19T18:44:43.776Z,100.00
2023-01-19T18:47:45.281Z,100.00
2023-01-19T18:50:46.979Z,100.00
2023-01-19T18:53:48.503Z,100.00
2023-01-19T18:56:50.690Z,100.00
2023-01-19T18:59:52.302Z,100.00
2023-01-19T19:02:55.572Z,100.00
2023-01-19T19:06:03.747Z,100.00
2023-01-19T19:09:05.553Z,100.00
2023-01-19T19:12:07.194Z,100.00
2023-01-19T19:15:09.580Z,100.00
2023-01-19T19:18:13.752Z,100.00
2023-01-19T19:21:17.509Z,100.00
2023-01-19T19:24:19.224Z,100.00
2023-01-19T19:27:20.732Z,100.00
2023-01-19T19:30:22.405Z,100.00
2023-01-19T19:33:24.181Z,100.00
2023-01-19T19:36:27.876Z,100.00
2023-01-19T19:39:29.510Z,100.00
2023-01-19T19:42:31.173Z,100.00
2023-01-19T19:45:32.804Z,100.00
2023-01-19T19:48:37.069Z,100.00
2023-01-19T19:51:39.970Z,100.00
2023-01-19T19:54:41.515Z,100.00
2023-01-19T19:57:43.045Z,100.00
2023-01-19T20:00:45.860Z,100.00
2023-01-19T20:03:47.839Z,100.00
2023-01-19T20:06:49.622Z,100.00
2023-01-19T20:09:53.516Z,100.00
2023-01-19T20:12:54.985Z,100.00
2023-01-19T20:15:56.496Z,100.00
2023-01-19T20:18:58.047Z,100.00
2023-01-19T20:22:05.970Z,100.00
2023-01-19T20:25:10.941Z,100.00
2023-01-19T20:28:12.547Z,100.00
2023-01-19T20:31:24.412Z,100.00
2023-01-19T20:34:32.949Z,100.00
2023-01-19T20:37:34.938Z,100.00
2023-01-19T20:40:36.513Z,100.00
2023-01-19T20:43:38.807Z,100.00
2023-01-19T20:46:40.709Z,100.00
2023-01-19T20:49:42.395Z,100.00
2023-01-19T20:52:43.925Z,100.00
2023-01-19T20:55:45.493Z,100.00
2023-01-19T20:58:47.126Z,100.00
2023-01-19T21:01:49.833Z,100.00
2023-01-19T21:04:53.205Z,100.00
2023-01-19T21:07:54.698Z,100.00
2023-01-19T21:10:57.359Z,100.00
2023-01-19T21:13:59.017Z,100.00
2023-01-19T21:17:11.376Z,100.00
2023-01-19T21:20:19.353Z,100.00
2023-01-19T21:23:23.853Z,100.00
2023-01-19T21:26:25.604Z,100.00
2023-01-19T21:29:29.773Z,100.00
2023-01-19T21:32:32.157Z,100.00
2023-01-19T21:35:33.599Z,100.00
2023-01-19T21:38:36.635Z,100.00
2023-01-19T21:41:39.871Z,100.00
2023-01-19T21:44:41.360Z,100.00
2023-01-19T21:47:42.907Z,100.00
2023-01-19T21:50:44.469Z,100.00
2023-01-19T21:53:49.406Z,100.00
2023-01-19T21:56:50.998Z,100.00
2023-01-19T21:59:52.629Z,100.00
2023-01-19T22:03:03.787Z,100.00
2023-01-19T22:06:07.830Z,100.00
2023-01-19T22:09:09.405Z,100.00
2023-01-19T22:12:11.045Z,100.00
2023-01-19T22:15:12.885Z,100.00
2023-01-19T22:18:14.537Z,100.00
2023-01-19T22:21:22.470Z,100.00
2023-01-19T22:24:23.945Z,100.00
2023-01-19T22:27:25.519Z,100.00
2023-01-19T22:30:27.146Z,100.00
2023-01-19T22:33:28.648Z,100.00
2023-01-19T22:36:34.056Z,100.00
2023-01-19T22:39:35.737Z,100.00
2023-01-19T22:42:37.188Z,100.00
2023-01-19T22:45:40.765Z,100.00
2023-01-19T22:48:42.316Z,100.00
2023-01-19T22:51:44.763Z,100.00
2023-01-19T22:54:46.244Z,100.00
2023-01-19T22:57:47.846Z,100.00
2023-01-19T23:00:49.413Z,100.00
2023-01-19T23:03:51.415Z,100.00
2023-01-19T23:06:52.986Z,100.00
2023-01-19T23:09:54.534Z,100.00
2023-01-19T23:12:56.012Z,100.00
2023-01-19T23:15:58.463Z,100.00
2023-01-19T23:19:00.535Z,100.00
2023-01-19T23:22:01.983Z,100.00
2023-01-19T23:25:03.712Z,100.00
2023-01-19T23:28:05.274Z,100.00
2023-01-19T23:31:12.971Z,100.00
2023-01-19T23:34:15.701Z,100.00
2023-01-19T23:37:17.180Z,100.00
2023-01-19T23:40:18.870Z,100.00
2023-01-19T23:43:20.447Z,100.00
2023-01-19T23:46:22.452Z,100.00
2023-01-19T23:49:24.250Z,100.00
2023-01-19T23:52:25.980Z,100.00
2023-01-19T23:55:27.989Z,100.00
2023-01-19T23:58:29.542Z,100.00
